sensor_id;sensor_type;location;lat;lon;timestamp;temperature;humidity
60965;DHT22;46834;51.100;6.886;2022-12-18T00:00:05;-2.30;43.80
60965;DHT22;46834;51.100;6.886;2022-12-18T00:02:32;-2.30;43.80
60965;DHT22;46834;51.100;6.886;2022-12-18T00:05:00;-2.30;43.80
60965;DHT22;46834;51.100;6.886;2022-12-18T00:07:26;-2.30;43.80
60965;DHT22;46834;51.100;6.886;2022-12-18T00:09:51;-2.30;43.80
60965;DHT22;46834;51.100;6.886;2022-12-18T00:12:17;-2.30;43.70
60965;DHT22;46834;51.100;6.886;2022-12-18T00:14:42;-2.30;43.70
60965;DHT22;46834;51.100;6.886;2022-12-18T00:17:08;-2.40;43.60
60965;DHT22;46834;51.100;6.886;2022-12-18T00:19:34;-2.30;43.80
60965;DHT22;46834;51.100;6.886;2022-12-18T00:21:59;-2.40;43.70
60965;DHT22;46834;51.100;6.886;2022-12-18T00:24:25;-2.40;43.70
60965;DHT22;46834;51.100;6.886;2022-12-18T00:26:51;-2.40;43.70
60965;DHT22;46834;51.100;6.886;2022-12-18T00:29:16;-2.40;44.30
60965;DHT22;46834;51.100;6.886;2022-12-18T00:31:42;-2.40;43.70
60965;DHT22;46834;51.100;6.886;2022-12-18T00:34:11;-2.40;43.70
60965;DHT22;46834;51.100;6.886;2022-12-18T00:36:39;-2.40;43.70
60965;DHT22;46834;51.100;6.886;2022-12-18T00:39:06;-2.40;43.70
60965;DHT22;46834;51.100;6.886;2022-12-18T00:41:32;-2.40;43.70
60965;DHT22;46834;51.100;6.886;2022-12-18T00:44:17;-2.40;43.70
60965;DHT22;46834;51.100;6.886;2022-12-18T00:46:45;-2.40;43.70
60965;DHT22;46834;51.100;6.886;2022-12-18T00:49:14;-2.40;43.70
60965;DHT22;46834;51.100;6.886;2022-12-18T00:51:41;-2.50;43.70
60965;DHT22;46834;51.100;6.886;2022-12-18T00:54:06;-2.50;43.60
60965;DHT22;46834;51.100;6.886;2022-12-18T00:56:32;-2.50;43.60
60965;DHT22;46834;51.100;6.886;2022-12-18T00:59:00;-2.50;43.60
60965;DHT22;46834;51.100;6.886;2022-12-18T01:01:25;-2.50;43.60
60965;DHT22;46834;51.100;6.886;2022-12-18T01:03:51;-2.50;43.60
60965;DHT22;46834;51.100;6.886;2022-12-18T01:06:17;-2.50;43.60
60965;DHT22;46834;51.100;6.886;2022-12-18T01:08:43;-2.50;43.70
60965;DHT22;46834;51.100;6.886;2022-12-18T01:11:11;-2.50;43.70
60965;DHT22;46834;51.100;6.886;2022-12-18T01:13:40;-2.50;43.70
60965;DHT22;46834;51.100;6.886;2022-12-18T01:16:06;-2.50;43.70
60965;DHT22;46834;51.100;6.886;2022-12-18T01:18:32;-2.50;43.70
60965;DHT22;46834;51.100;6.886;2022-12-18T01:20:58;-2.50;43.70
60965;DHT22;46834;51.100;6.886;2022-12-18T01:23:23;-2.50;43.70
60965;DHT22;46834;51.100;6.886;2022-12-18T01:25:49;-2.50;43.70
60965;DHT22;46834;51.100;6.886;2022-12-18T01:28:15;-2.50;43.70
60965;DHT22;46834;51.100;6.886;2022-12-18T01:30:40;-2.50;43.70
60965;DHT22;46834;51.100;6.886;2022-12-18T01:33:06;-2.50;43.70
60965;DHT22;46834;51.100;6.886;2022-12-18T01:35:32;-2.50;43.70
60965;DHT22;46834;51.100;6.886;2022-12-18T01:37:58;-2.50;43.70
60965;DHT22;46834;51.100;6.886;2022-12-18T01:40:23;-2.50;43.70
60965;DHT22;46834;51.100;6.886;2022-12-18T01:42:51;-2.50;43.70
60965;DHT22;46834;51.100;6.886;2022-12-18T01:45:24;-2.50;43.70
60965;DHT22;46834;51.100;6.886;2022-12-18T01:47:55;-2.50;43.70
60965;DHT22;46834;51.100;6.886;2022-12-18T01:50:36;-2.50;43.70
60965;DHT22;46834;51.100;6.886;2022-12-18T01:55:45;-2.40;43.70
60965;DHT22;46834;51.100;6.886;2022-12-18T01:58:13;-2.40;43.70
60965;DHT22;46834;51.100;6.886;2022-12-18T02:00:40;-2.50;43.60
60965;DHT22;46834;51.100;6.886;2022-12-18T02:03:06;-2.50;43.60
60965;DHT22;46834;51.100;6.886;2022-12-18T02:05:48;-2.50;43.60
60965;DHT22;46834;51.100;6.886;2022-12-18T02:08:34;-2.50;43.60
60965;DHT22;46834;51.100;6.886;2022-12-18T02:14:17;-2.50;43.60
60965;DHT22;46834;51.100;6.886;2022-12-18T02:19:46;-2.50;43.60
60965;DHT22;46834;51.100;6.886;2022-12-18T02:27:32;-2.40;43.70
60965;DHT22;46834;51.100;6.886;2022-12-18T02:30:01;-2.50;43.70
60965;DHT22;46834;51.100;6.886;2022-12-18T02:32:33;-2.50;43.70
60965;DHT22;46834;51.100;6.886;2022-12-18T02:35:04;-2.50;43.80
60965;DHT22;46834;51.100;6.886;2022-12-18T02:37:33;-2.50;43.70
60965;DHT22;46834;51.100;6.886;2022-12-18T02:40:02;-2.50;43.70
60965;DHT22;46834;51.100;6.886;2022-12-18T02:42:29;-2.50;43.70
60965;DHT22;46834;51.100;6.886;2022-12-18T02:44:56;-2.50;43.70
60965;DHT22;46834;51.100;6.886;2022-12-18T02:47:23;-2.50;43.70
60965;DHT22;46834;51.100;6.886;2022-12-18T02:56:00;-2.50;43.70
60965;DHT22;46834;51.100;6.886;2022-12-18T03:04:06;-2.50;43.70
60965;DHT22;46834;51.100;6.886;2022-12-18T03:06:44;-2.50;43.70
60965;DHT22;46834;51.100;6.886;2022-12-18T03:09:37;-2.50;43.70
60965;DHT22;46834;51.100;6.886;2022-12-18T03:12:18;-2.50;43.70
60965;DHT22;46834;51.100;6.886;2022-12-18T03:17:32;-2.50;43.70
60965;DHT22;46834;51.100;6.886;2022-12-18T03:20:06;-2.50;43.80
60965;DHT22;46834;51.100;6.886;2022-12-18T03:22:37;-2.50;43.80
60965;DHT22;46834;51.100;6.886;2022-12-18T03:25:06;-2.60;43.70
60965;DHT22;46834;51.100;6.886;2022-12-18T03:27:37;-2.50;43.80
60965;DHT22;46834;51.100;6.886;2022-12-18T03:30:12;-2.50;43.80
60965;DHT22;46834;51.100;6.886;2022-12-18T03:33:01;-2.50;43.70
60965;DHT22;46834;51.100;6.886;2022-12-18T03:35:36;-2.50;43.70
60965;DHT22;46834;51.100;6.886;2022-12-18T03:38:05;-2.50;43.70
60965;DHT22;46834;51.100;6.886;2022-12-18T03:40:41;-2.50;43.70
60965;DHT22;46834;51.100;6.886;2022-12-18T03:46:20;-2.50;43.70
60965;DHT22;46834;51.100;6.886;2022-12-18T03:49:06;-2.50;43.70
60965;DHT22;46834;51.100;6.886;2022-12-18T03:51:52;-2.50;43.70
60965;DHT22;46834;51.100;6.886;2022-12-18T03:54:29;-2.50;43.80
60965;DHT22;46834;51.100;6.886;2022-12-18T03:57:01;-2.50;43.70
60965;DHT22;46834;51.100;6.886;2022-12-18T03:59:35;-2.50;43.80
60965;DHT22;46834;51.100;6.886;2022-12-18T04:02:05;-2.50;43.80
60965;DHT22;46834;51.100;6.886;2022-12-18T04:04:34;-2.50;43.80
60965;DHT22;46834;51.100;6.886;2022-12-18T04:07:02;-2.50;43.80
60965;DHT22;46834;51.100;6.886;2022-12-18T04:09:30;-2.50;43.80
60965;DHT22;46834;51.100;6.886;2022-12-18T04:11:58;-2.50;43.80
60965;DHT22;46834;51.100;6.886;2022-12-18T04:14:23;-2.50;43.80
60965;DHT22;46834;51.100;6.886;2022-12-18T04:16:49;-2.50;43.80
60965;DHT22;46834;51.100;6.886;2022-12-18T04:19:15;-2.60;43.70
60965;DHT22;46834;51.100;6.886;2022-12-18T04:21:40;-2.50;43.80
60965;DHT22;46834;51.100;6.886;2022-12-18T04:24:06;-2.50;43.80
60965;DHT22;46834;51.100;6.886;2022-12-18T04:26:32;-2.50;43.80
60965;DHT22;46834;51.100;6.886;2022-12-18T04:28:58;-2.50;43.80
60965;DHT22;46834;51.100;6.886;2022-12-18T04:31:23;-2.50;43.80
60965;DHT22;46834;51.100;6.886;2022-12-18T04:33:49;-2.50;43.80
60965;DHT22;46834;51.100;6.886;2022-12-18T04:36:15;-2.50;43.80
60965;DHT22;46834;51.100;6.886;2022-12-18T04:38:40;-2.60;43.70
60965;DHT22;46834;51.100;6.886;2022-12-18T04:41:06;-2.60;43.70
60965;DHT22;46834;51.100;6.886;2022-12-18T04:43:32;-2.60;43.60
60965;DHT22;46834;51.100;6.886;2022-12-18T04:46:05;-2.60;43.70
60965;DHT22;46834;51.100;6.886;2022-12-18T04:48:32;-2.60;43.70
60965;DHT22;46834;51.100;6.886;2022-12-18T04:50:58;-2.60;43.60
60965;DHT22;46834;51.100;6.886;2022-12-18T04:53:24;-2.60;43.60
60965;DHT22;46834;51.100;6.886;2022-12-18T04:55:50;-2.60;43.60
60965;DHT22;46834;51.100;6.886;2022-12-18T04:58:15;-2.60;43.60
60965;DHT22;46834;51.100;6.886;2022-12-18T05:00:41;-2.60;43.70
60965;DHT22;46834;51.100;6.886;2022-12-18T05:03:07;-2.60;43.60
60965;DHT22;46834;51.100;6.886;2022-12-18T05:05:35;-2.60;43.60
60965;DHT22;46834;51.100;6.886;2022-12-18T05:08:00;-2.70;43.50
60965;DHT22;46834;51.100;6.886;2022-12-18T05:10:26;-2.70;43.60
60965;DHT22;46834;51.100;6.886;2022-12-18T05:12:52;-2.70;43.50
60965;DHT22;46834;51.100;6.886;2022-12-18T05:15:26;-2.70;43.50
60965;DHT22;46834;51.100;6.886;2022-12-18T05:17:55;-2.70;43.50
60965;DHT22;46834;51.100;6.886;2022-12-18T05:20:22;-2.70;43.50
60965;DHT22;46834;51.100;6.886;2022-12-18T05:22:48;-2.70;43.50
60965;DHT22;46834;51.100;6.886;2022-12-18T05:25:14;-2.80;43.50
60965;DHT22;46834;51.100;6.886;2022-12-18T05:27:40;-2.80;43.50
60965;DHT22;46834;51.100;6.886;2022-12-18T05:30:07;-2.80;43.50
60965;DHT22;46834;51.100;6.886;2022-12-18T05:32:33;-2.80;43.50
60965;DHT22;46834;51.100;6.886;2022-12-18T05:34:59;-2.80;43.50
60965;DHT22;46834;51.100;6.886;2022-12-18T05:37:25;-2.80;43.50
60965;DHT22;46834;51.100;6.886;2022-12-18T05:39:51;-2.80;43.50
60965;DHT22;46834;51.100;6.886;2022-12-18T05:42:16;-2.80;43.50
60965;DHT22;46834;51.100;6.886;2022-12-18T05:44:43;-2.90;43.50
60965;DHT22;46834;51.100;6.886;2022-12-18T05:47:09;-2.90;43.50
60965;DHT22;46834;51.100;6.886;2022-12-18T05:49:34;-2.90;43.50
60965;DHT22;46834;51.100;6.886;2022-12-18T05:52:01;-2.90;44.10
60965;DHT22;46834;51.100;6.886;2022-12-18T05:54:27;-2.90;43.60
60965;DHT22;46834;51.100;6.886;2022-12-18T05:56:53;-2.90;43.60
60965;DHT22;46834;51.100;6.886;2022-12-18T05:59:19;-2.90;43.60
60965;DHT22;46834;51.100;6.886;2022-12-18T06:01:45;-2.90;43.60
60965;DHT22;46834;51.100;6.886;2022-12-18T06:04:11;-2.90;43.70
60965;DHT22;46834;51.100;6.886;2022-12-18T06:06:37;-2.90;43.70
60965;DHT22;46834;51.100;6.886;2022-12-18T06:09:04;-2.90;43.70
60965;DHT22;46834;51.100;6.886;2022-12-18T06:11:34;-2.90;43.70
60965;DHT22;46834;51.100;6.886;2022-12-18T06:14:02;-2.90;43.70
60965;DHT22;46834;51.100;6.886;2022-12-18T06:16:29;-2.90;43.70
60965;DHT22;46834;51.100;6.886;2022-12-18T06:19:00;-2.90;43.70
60965;DHT22;46834;51.100;6.886;2022-12-18T06:21:28;-2.90;43.70
60965;DHT22;46834;51.100;6.886;2022-12-18T06:23:55;-2.90;43.70
60965;DHT22;46834;51.100;6.886;2022-12-18T06:26:21;-2.90;43.70
60965;DHT22;46834;51.100;6.886;2022-12-18T06:28:47;-2.90;43.70
60965;DHT22;46834;51.100;6.886;2022-12-18T06:31:12;-2.90;43.70
60965;DHT22;46834;51.100;6.886;2022-12-18T06:33:38;-2.90;43.60
60965;DHT22;46834;51.100;6.886;2022-12-18T06:36:11;-2.90;43.70
60965;DHT22;46834;51.100;6.886;2022-12-18T06:38:40;-2.90;43.60
60965;DHT22;46834;51.100;6.886;2022-12-18T06:41:08;-2.90;43.60
60965;DHT22;46834;51.100;6.886;2022-12-18T06:43:42;-2.90;43.60
60965;DHT22;46834;51.100;6.886;2022-12-18T06:46:08;-2.90;43.60
60965;DHT22;46834;51.100;6.886;2022-12-18T06:48:34;-2.90;43.50
60965;DHT22;46834;51.100;6.886;2022-12-18T06:51:00;-2.90;43.50
60965;DHT22;46834;51.100;6.886;2022-12-18T06:53:27;-2.90;43.50
60965;DHT22;46834;51.100;6.886;2022-12-18T06:56:00;-2.90;43.60
60965;DHT22;46834;51.100;6.886;2022-12-18T06:58:27;-2.90;43.60
60965;DHT22;46834;51.100;6.886;2022-12-18T07:00:53;-2.90;43.60
60965;DHT22;46834;51.100;6.886;2022-12-18T07:03:18;-2.90;43.60
60965;DHT22;46834;51.100;6.886;2022-12-18T07:05:44;-2.90;43.60
60965;DHT22;46834;51.100;6.886;2022-12-18T07:08:10;-2.90;43.50
60965;DHT22;46834;51.100;6.886;2022-12-18T07:10:43;-2.90;43.50
60965;DHT22;46834;51.100;6.886;2022-12-18T07:13:09;-2.90;43.50
60965;DHT22;46834;51.100;6.886;2022-12-18T07:15:35;-2.90;43.50
60965;DHT22;46834;51.100;6.886;2022-12-18T07:18:01;-2.90;43.50
60965;DHT22;46834;51.100;6.886;2022-12-18T07:20:26;-2.90;43.50
60965;DHT22;46834;51.100;6.886;2022-12-18T07:22:52;-3.00;43.40
60965;DHT22;46834;51.100;6.886;2022-12-18T07:25:17;-3.00;43.40
60965;DHT22;46834;51.100;6.886;2022-12-18T07:27:43;-3.00;43.40
60965;DHT22;46834;51.100;6.886;2022-12-18T07:30:09;-3.00;43.40
60965;DHT22;46834;51.100;6.886;2022-12-18T07:32:35;-3.00;43.50
60965;DHT22;46834;51.100;6.886;2022-12-18T07:35:01;-3.00;43.50
60965;DHT22;46834;51.100;6.886;2022-12-18T07:37:27;-3.00;43.50
60965;DHT22;46834;51.100;6.886;2022-12-18T07:39:53;-3.00;43.50
60965;DHT22;46834;51.100;6.886;2022-12-18T07:42:19;-3.00;43.50
60965;DHT22;46834;51.100;6.886;2022-12-18T07:44:57;-3.00;43.50
60965;DHT22;46834;51.100;6.886;2022-12-18T07:47:28;-3.00;43.60
60965;DHT22;46834;51.100;6.886;2022-12-18T07:49:59;-3.00;43.60
60965;DHT22;46834;51.100;6.886;2022-12-18T07:52:24;-3.00;43.60
60965;DHT22;46834;51.100;6.886;2022-12-18T07:54:50;-3.00;43.60
60965;DHT22;46834;51.100;6.886;2022-12-18T07:57:16;-3.00;43.60
60965;DHT22;46834;51.100;6.886;2022-12-18T07:59:43;-2.90;43.70
60965;DHT22;46834;51.100;6.886;2022-12-18T08:02:08;-2.90;43.70
60965;DHT22;46834;51.100;6.886;2022-12-18T08:04:34;-2.90;43.70
60965;DHT22;46834;51.100;6.886;2022-12-18T08:07:00;-2.90;43.80
60965;DHT22;46834;51.100;6.886;2022-12-18T08:09:26;-2.90;43.70
60965;DHT22;46834;51.100;6.886;2022-12-18T08:11:51;-2.80;43.80
60965;DHT22;46834;51.100;6.886;2022-12-18T08:14:17;-2.80;43.80
60965;DHT22;46834;51.100;6.886;2022-12-18T08:16:43;-2.80;43.80
60965;DHT22;46834;51.100;6.886;2022-12-18T08:19:10;-2.80;44.40
60965;DHT22;46834;51.100;6.886;2022-12-18T08:21:35;-2.70;43.80
60965;DHT22;46834;51.100;6.886;2022-12-18T08:24:02;-2.70;43.80
60965;DHT22;46834;51.100;6.886;2022-12-18T08:26:30;-2.70;43.80
60965;DHT22;46834;51.100;6.886;2022-12-18T08:28:57;-2.60;43.90
60965;DHT22;46834;51.100;6.886;2022-12-18T08:31:26;-2.60;44.00
60965;DHT22;46834;51.100;6.886;2022-12-18T08:33:53;-2.60;44.00
60965;DHT22;46834;51.100;6.886;2022-12-18T08:36:20;-2.60;44.00
60965;DHT22;46834;51.100;6.886;2022-12-18T08:38:46;-2.50;44.00
60965;DHT22;46834;51.100;6.886;2022-12-18T08:41:14;-2.50;44.00
60965;DHT22;46834;51.100;6.886;2022-12-18T08:43:41;-2.50;44.00
60965;DHT22;46834;51.100;6.886;2022-12-18T08:46:27;-2.40;44.10
60965;DHT22;46834;51.100;6.886;2022-12-18T08:48:58;-2.40;44.00
60965;DHT22;46834;51.100;6.886;2022-12-18T08:51:24;-2.30;44.10
60965;DHT22;46834;51.100;6.886;2022-12-18T08:53:49;-2.30;44.10
60965;DHT22;46834;51.100;6.886;2022-12-18T08:56:15;-2.20;44.30
60965;DHT22;46834;51.100;6.886;2022-12-18T08:58:42;-2.20;44.20
60965;DHT22;46834;51.100;6.886;2022-12-18T09:01:10;-2.10;44.30
60965;DHT22;46834;51.100;6.886;2022-12-18T09:03:37;-2.10;44.20
60965;DHT22;46834;51.100;6.886;2022-12-18T09:06:04;-2.00;44.30
60965;DHT22;46834;51.100;6.886;2022-12-18T09:08:30;-1.90;44.40
60965;DHT22;46834;51.100;6.886;2022-12-18T09:10:56;-1.90;44.30
60965;DHT22;46834;51.100;6.886;2022-12-18T09:13:22;-1.80;44.40
60965;DHT22;46834;51.100;6.886;2022-12-18T09:15:53;-1.80;44.30
60965;DHT22;46834;51.100;6.886;2022-12-18T09:18:22;-1.70;44.30
60965;DHT22;46834;51.100;6.886;2022-12-18T09:20:48;-1.70;44.20
60965;DHT22;46834;51.100;6.886;2022-12-18T09:23:17;-1.60;44.30
60965;DHT22;46834;51.100;6.886;2022-12-18T09:25:42;-1.60;44.20
60965;DHT22;46834;51.100;6.886;2022-12-18T09:28:18;-1.60;44.20
60965;DHT22;46834;51.100;6.886;2022-12-18T09:30:47;-1.50;44.10
60965;DHT22;46834;51.100;6.886;2022-12-18T09:33:14;-1.50;44.20
60965;DHT22;46834;51.100;6.886;2022-12-18T09:35:42;-1.50;44.20
60965;DHT22;46834;51.100;6.886;2022-12-18T09:38:12;-1.40;44.30
60965;DHT22;46834;51.100;6.886;2022-12-18T09:40:43;-1.40;44.30
60965;DHT22;46834;51.100;6.886;2022-12-18T09:46:14;-1.20;44.30
60965;DHT22;46834;51.100;6.886;2022-12-18T09:48:47;-1.20;44.10
60965;DHT22;46834;51.100;6.886;2022-12-18T09:51:23;-1.20;44.00
60965;DHT22;46834;51.100;6.886;2022-12-18T09:53:58;-1.10;44.10
60965;DHT22;46834;51.100;6.886;2022-12-18T09:56:30;-1.00;44.10
60965;DHT22;46834;51.100;6.886;2022-12-18T09:59:02;-1.00;44.10
60965;DHT22;46834;51.100;6.886;2022-12-18T10:01:30;-1.00;44.10
60965;DHT22;46834;51.100;6.886;2022-12-18T10:03:57;-0.90;44.10
60965;DHT22;46834;51.100;6.886;2022-12-18T10:12:12;-0.80;43.90
60965;DHT22;46834;51.100;6.886;2022-12-18T10:17:55;-0.70;43.70
60965;DHT22;46834;51.100;6.886;2022-12-18T10:20:38;-0.70;43.60
60965;DHT22;46834;51.100;6.886;2022-12-18T10:28:27;-0.50;43.80
60965;DHT22;46834;51.100;6.886;2022-12-18T10:30:55;-0.50;43.80
60965;DHT22;46834;51.100;6.886;2022-12-18T10:33:23;-0.50;43.80
60965;DHT22;46834;51.100;6.886;2022-12-18T10:35:53;-0.40;44.00
60965;DHT22;46834;51.100;6.886;2022-12-18T10:38:20;-0.40;43.60
60965;DHT22;46834;51.100;6.886;2022-12-18T10:43:16;-0.40;43.20
60965;DHT22;46834;51.100;6.886;2022-12-18T10:51:06;-0.30;43.30
60965;DHT22;46834;51.100;6.886;2022-12-18T10:53:34;-0.20;43.50
60965;DHT22;46834;51.100;6.886;2022-12-18T10:56:04;-0.20;43.40
60965;DHT22;46834;51.100;6.886;2022-12-18T10:58:36;-0.20;43.30
60965;DHT22;46834;51.100;6.886;2022-12-18T11:03:42;-0.10;43.40
60965;DHT22;46834;51.100;6.886;2022-12-18T11:08:35;0.00;43.50
60965;DHT22;46834;51.100;6.886;2022-12-18T11:11:02;0.00;43.60
60965;DHT22;46834;51.100;6.886;2022-12-18T11:13:30;0.10;43.60
60965;DHT22;46834;51.100;6.886;2022-12-18T11:15:57;0.10;43.20
60965;DHT22;46834;51.100;6.886;2022-12-18T11:18:28;0.20;43.50
60965;DHT22;46834;51.100;6.886;2022-12-18T11:21:00;0.20;43.10
60965;DHT22;46834;51.100;6.886;2022-12-18T11:23:33;0.20;43.00
60965;DHT22;46834;51.100;6.886;2022-12-18T11:26:02;0.30;43.20
60965;DHT22;46834;51.100;6.886;2022-12-18T11:28:43;0.30;42.80
60965;DHT22;46834;51.100;6.886;2022-12-18T11:31:24;0.30;42.80
60965;DHT22;46834;51.100;6.886;2022-12-18T11:36:54;0.40;42.90
60965;DHT22;46834;51.100;6.886;2022-12-18T11:39:27;0.40;42.60
60965;DHT22;46834;51.100;6.886;2022-12-18T11:42:12;0.50;42.90
60965;DHT22;46834;51.100;6.886;2022-12-18T11:47:40;0.50;42.70
60965;DHT22;46834;51.100;6.886;2022-12-18T11:50:17;0.60;42.70
60965;DHT22;46834;51.100;6.886;2022-12-18T11:52:46;0.60;42.70
60965;DHT22;46834;51.100;6.886;2022-12-18T11:55:19;0.60;42.80
60965;DHT22;46834;51.100;6.886;2022-12-18T12:00:38;0.60;42.70
60965;DHT22;46834;51.100;6.886;2022-12-18T12:03:37;0.60;42.50
60965;DHT22;46834;51.100;6.886;2022-12-18T12:06:26;0.60;42.60
60965;DHT22;46834;51.100;6.886;2022-12-18T12:12:23;0.60;42.70
60965;DHT22;46834;51.100;6.886;2022-12-18T12:24:03;0.70;42.60
60965;DHT22;46834;51.100;6.886;2022-12-18T12:35:42;0.70;42.60
60965;DHT22;46834;51.100;6.886;2022-12-18T12:38:22;0.70;42.70
60965;DHT22;46834;51.100;6.886;2022-12-18T12:40:58;0.70;42.40
60965;DHT22;46834;51.100;6.886;2022-12-18T12:43:35;0.70;42.50
60965;DHT22;46834;51.100;6.886;2022-12-18T12:46:14;0.60;42.40
60965;DHT22;46834;51.100;6.886;2022-12-18T12:48:52;0.60;42.30
60965;DHT22;46834;51.100;6.886;2022-12-18T12:51:39;0.60;42.20
60965;DHT22;46834;51.100;6.886;2022-12-18T12:54:15;0.60;42.40
60965;DHT22;46834;51.100;6.886;2022-12-18T12:57:02;0.60;42.30
60965;DHT22;46834;51.100;6.886;2022-12-18T13:03:08;0.60;42.10
60965;DHT22;46834;51.100;6.886;2022-12-18T13:05:50;0.60;42.20
60965;DHT22;46834;51.100;6.886;2022-12-18T13:08:25;0.60;42.20
60965;DHT22;46834;51.100;6.886;2022-12-18T13:10:53;0.60;42.30
60965;DHT22;46834;51.100;6.886;2022-12-18T13:13:50;0.60;42.20
60965;DHT22;46834;51.100;6.886;2022-12-18T13:16:24;0.50;42.10
60965;DHT22;46834;51.100;6.886;2022-12-18T13:18:56;0.50;41.80
60965;DHT22;46834;51.100;6.886;2022-12-18T13:21:32;0.50;42.00
60965;DHT22;46834;51.100;6.886;2022-12-18T13:24:28;0.50;41.90
60965;DHT22;46834;51.100;6.886;2022-12-18T13:26:56;0.50;42.00
60965;DHT22;46834;51.100;6.886;2022-12-18T13:29:45;0.50;41.70
60965;DHT22;46834;51.100;6.886;2022-12-18T13:32:37;0.40;41.70
60965;DHT22;46834;51.100;6.886;2022-12-18T13:37:53;0.40;41.70
60965;DHT22;46834;51.100;6.886;2022-12-18T13:43:21;0.40;41.70
60965;DHT22;46834;51.100;6.886;2022-12-18T13:48:52;0.40;41.80
60965;DHT22;46834;51.100;6.886;2022-12-18T13:51:19;0.40;42.50
60965;DHT22;46834;51.100;6.886;2022-12-18T13:53:55;0.30;41.70
60965;DHT22;46834;51.100;6.886;2022-12-18T13:56:30;0.30;41.80
60965;DHT22;46834;51.100;6.886;2022-12-18T14:01:59;0.30;42.50
60965;DHT22;46834;51.100;6.886;2022-12-18T14:04:35;0.30;41.70
60965;DHT22;46834;51.100;6.886;2022-12-18T14:07:11;0.30;41.80
60965;DHT22;46834;51.100;6.886;2022-12-18T14:09:43;0.30;41.70
60965;DHT22;46834;51.100;6.886;2022-12-18T14:12:17;0.30;41.80
60965;DHT22;46834;51.100;6.886;2022-12-18T14:17:57;0.30;41.60
60965;DHT22;46834;51.100;6.886;2022-12-18T14:20:26;0.30;42.30
60965;DHT22;46834;51.100;6.886;2022-12-18T14:22:53;0.30;41.40
60965;DHT22;46834;51.100;6.886;2022-12-18T14:25:25;0.20;41.40
60965;DHT22;46834;51.100;6.886;2022-12-18T14:30:38;0.20;41.30
60965;DHT22;46834;51.100;6.886;2022-12-18T14:33:20;0.20;41.40
60965;DHT22;46834;51.100;6.886;2022-12-18T14:36:00;0.20;41.30
60965;DHT22;46834;51.100;6.886;2022-12-18T14:38:38;0.10;41.10
60965;DHT22;46834;51.100;6.886;2022-12-18T14:41:13;0.10;41.00
60965;DHT22;46834;51.100;6.886;2022-12-18T14:43:42;0.10;41.70
60965;DHT22;46834;51.100;6.886;2022-12-18T14:49:05;0.10;41.50
60965;DHT22;46834;51.100;6.886;2022-12-18T14:51:55;0.00;41.50
60965;DHT22;46834;51.100;6.886;2022-12-18T14:54:24;0.10;41.40
60965;DHT22;46834;51.100;6.886;2022-12-18T14:59:26;0.00;41.60
60965;DHT22;46834;51.100;6.886;2022-12-18T15:04:45;0.00;41.60
60965;DHT22;46834;51.100;6.886;2022-12-18T15:07:20;0.10;41.50
60965;DHT22;46834;51.100;6.886;2022-12-18T15:10:11;0.00;41.40
60965;DHT22;46834;51.100;6.886;2022-12-18T15:12:45;0.00;41.30
60965;DHT22;46834;51.100;6.886;2022-12-18T15:18:02;0.00;41.40
60965;DHT22;46834;51.100;6.886;2022-12-18T15:20:38;0.00;41.30
60965;DHT22;46834;51.100;6.886;2022-12-18T15:23:21;0.00;41.30
60965;DHT22;46834;51.100;6.886;2022-12-18T15:25:59;0.00;41.50
60965;DHT22;46834;51.100;6.886;2022-12-18T15:28:32;0.00;41.30
60965;DHT22;46834;51.100;6.886;2022-12-18T15:34:00;0.00;41.40
60965;DHT22;46834;51.100;6.886;2022-12-18T15:36:37;0.00;41.40
60965;DHT22;46834;51.100;6.886;2022-12-18T15:39:04;0.00;41.40
60965;DHT22;46834;51.100;6.886;2022-12-18T15:41:32;0.00;41.40
60965;DHT22;46834;51.100;6.886;2022-12-18T15:43:59;-0.10;41.30
60965;DHT22;46834;51.100;6.886;2022-12-18T15:46:25;-0.10;41.40
60965;DHT22;46834;51.100;6.886;2022-12-18T15:48:53;-0.10;41.20
60965;DHT22;46834;51.100;6.886;2022-12-18T15:51:27;-0.10;41.40
60965;DHT22;46834;51.100;6.886;2022-12-18T15:53:56;-0.10;41.50
60965;DHT22;46834;51.100;6.886;2022-12-18T15:56:24;-0.10;41.50
60965;DHT22;46834;51.100;6.886;2022-12-18T15:59:17;-0.10;41.60
60965;DHT22;46834;51.100;6.886;2022-12-18T16:01:46;-0.10;41.50
60965;DHT22;46834;51.100;6.886;2022-12-18T16:04:14;-0.10;41.30
60965;DHT22;46834;51.100;6.886;2022-12-18T16:06:41;-0.10;41.50
60965;DHT22;46834;51.100;6.886;2022-12-18T16:09:07;-0.10;41.50
60965;DHT22;46834;51.100;6.886;2022-12-18T16:11:35;-0.10;41.60
60965;DHT22;46834;51.100;6.886;2022-12-18T16:14:23;-0.20;41.50
60965;DHT22;46834;51.100;6.886;2022-12-18T16:16:55;-0.10;41.60
60965;DHT22;46834;51.100;6.886;2022-12-18T16:19:26;-0.10;41.80
60965;DHT22;46834;51.100;6.886;2022-12-18T16:21:55;-0.10;41.80
60965;DHT22;46834;51.100;6.886;2022-12-18T16:24:24;-0.10;41.90
60965;DHT22;46834;51.100;6.886;2022-12-18T16:26:52;-0.10;41.90
60965;DHT22;46834;51.100;6.886;2022-12-18T16:29:19;-0.10;41.80
60965;DHT22;46834;51.100;6.886;2022-12-18T16:31:53;-0.20;41.70
60965;DHT22;46834;51.100;6.886;2022-12-18T16:34:20;-0.20;41.80
60965;DHT22;46834;51.100;6.886;2022-12-18T16:36:48;-0.20;41.80
60965;DHT22;46834;51.100;6.886;2022-12-18T16:39:15;-0.20;41.90
60965;DHT22;46834;51.100;6.886;2022-12-18T16:41:41;-0.20;42.00
60965;DHT22;46834;51.100;6.886;2022-12-18T16:44:08;-0.20;42.00
60965;DHT22;46834;51.100;6.886;2022-12-18T16:46:34;-0.20;42.00
60965;DHT22;46834;51.100;6.886;2022-12-18T16:49:00;-0.20;42.00
60965;DHT22;46834;51.100;6.886;2022-12-18T16:51:29;-0.20;42.00
60965;DHT22;46834;51.100;6.886;2022-12-18T16:53:55;-0.20;42.00
60965;DHT22;46834;51.100;6.886;2022-12-18T16:56:21;-0.20;42.10
60965;DHT22;46834;51.100;6.886;2022-12-18T16:58:58;-0.30;42.10
60965;DHT22;46834;51.100;6.886;2022-12-18T17:01:27;-0.30;42.70
60965;DHT22;46834;51.100;6.886;2022-12-18T17:03:59;-0.30;42.10
60965;DHT22;46834;51.100;6.886;2022-12-18T17:06:28;-0.30;42.10
60965;DHT22;46834;51.100;6.886;2022-12-18T17:08:58;-0.30;42.10
60965;DHT22;46834;51.100;6.886;2022-12-18T17:11:27;-0.30;42.20
60965;DHT22;46834;51.100;6.886;2022-12-18T17:13:54;-0.30;42.30
60965;DHT22;46834;51.100;6.886;2022-12-18T17:16:20;-0.30;42.20
60965;DHT22;46834;51.100;6.886;2022-12-18T17:18:46;-0.40;42.20
60965;DHT22;46834;51.100;6.886;2022-12-18T17:21:13;-0.40;42.20
60965;DHT22;46834;51.100;6.886;2022-12-18T17:23:40;-0.40;42.30
60965;DHT22;46834;51.100;6.886;2022-12-18T17:26:08;-0.40;42.30
60965;DHT22;46834;51.100;6.886;2022-12-18T17:28:35;-0.40;42.30
60965;DHT22;46834;51.100;6.886;2022-12-18T17:31:11;-0.40;42.30
60965;DHT22;46834;51.100;6.886;2022-12-18T17:33:47;-0.40;42.30
60965;DHT22;46834;51.100;6.886;2022-12-18T17:36:14;-0.40;42.30
60965;DHT22;46834;51.100;6.886;2022-12-18T17:38:41;-0.40;42.40
60965;DHT22;46834;51.100;6.886;2022-12-18T17:41:09;-0.40;42.40
60965;DHT22;46834;51.100;6.886;2022-12-18T17:43:36;-0.40;42.40
60965;DHT22;46834;51.100;6.886;2022-12-18T17:46:13;-0.40;42.40
60965;DHT22;46834;51.100;6.886;2022-12-18T17:48:39;-0.50;42.30
60965;DHT22;46834;51.100;6.886;2022-12-18T17:51:07;-0.50;42.30
60965;DHT22;46834;51.100;6.886;2022-12-18T17:53:35;-0.50;42.30
60965;DHT22;46834;51.100;6.886;2022-12-18T17:56:04;-0.50;42.40
60965;DHT22;46834;51.100;6.886;2022-12-18T17:58:32;-0.50;42.40